Time;durP1;ratioP1;P1;durP2;ratioP2;P2;SDS_P1;SDS_P2;PMS_P1;PMS_P2;Temp;Humidity;BMP_temperature;BMP_pressure;BME280_temperature;BME280_humidity;BME280_pressure;Samples;Min_cycle;Max_cycle;Signal;HPM_P1;HPM_P2
2022/05/06 00:02:01;;;;;;;10.25;7.47;;;;;;;;;;5093363;28;20467;-40
2022/05/06 00:04:26;;;;;;;12.00;8.10;;;;;;;;;;5093508;28;20027;-40
2022/05/06 00:06:52;;;;;;;11.63;8.38;;;;;;;;;;5093611;28;20012;-40
2022/05/06 00:09:17;;;;;;;11.60;8.35;;;;;;;;;;5093459;28;20016;-40
2022/05/06 00:11:42;;;;;;;9.63;7.97;;;;;;;;;;5093334;28;20024;-40
2022/05/06 00:14:08;;;;;;;11.07;8.02;;;;;;;;;;5093482;28;20012;-40
2022/05/06 00:16:33;;;;;;;10.13;8.32;;;;;;;;;;5093439;28;20031;-40
2022/05/06 00:18:58;;;;;;;9.85;8.45;;;;;;;;;;5093655;28;20336;-40
2022/05/06 00:21:23;;;;;;;10.75;8.48;;;;;;;;;;5093489;28;20475;-40
2022/05/06 00:23:49;;;;;;;13.30;8.93;;;;;;;;;;5093323;28;20052;-40
2022/05/06 00:26:14;;;;;;;11.57;8.40;;;;;;;;;;5093064;28;20052;-40
2022/05/06 00:28:39;;;;;;;14.82;9.23;;;;;;;;;;5093463;28;20370;-40
2022/05/06 00:31:06;;;;;;;10.80;8.50;;;;;;;;;;5093168;28;20020;-40
2022/05/06 00:33:32;;;;;;;10.55;8.32;;;;;;;;;;5093306;28;20073;-40
2022/05/06 00:35:58;;;;;;;14.18;9.18;;;;;;;;;;5093320;28;20459;-40
2022/05/06 00:38:23;;;;;;;11.02;7.60;;;;;;;;;;5093045;28;20575;-40
2022/05/06 00:40:48;;;;;;;10.98;9.23;;;;;;;;;;5093290;28;20024;-41
2022/05/06 00:43:14;;;;;;;11.68;8.45;;;;;;;;;;5093016;28;20024;-40
2022/05/06 00:45:44;;;;;;;11.07;7.80;;;;;;;;;;5093190;28;20467;-40
2022/05/06 00:48:09;;;;;;;13.80;9.18;;;;;;;;;;5093400;28;20107;-40
2022/05/06 00:50:34;;;;;;;9.18;8.13;;;;;;;;;;5093034;28;20043;-40
2022/05/06 00:53:01;;;;;;;10.45;8.23;;;;;;;;;;5093160;28;20031;-40
2022/05/06 00:55:26;;;;;;;12.95;8.40;;;;;;;;;;5092444;28;20600;-42
2022/05/06 00:57:52;;;;;;;11.85;9.15;;;;;;;;;;5092912;28;20064;-40
2022/05/06 01:00:20;;;;;;;12.55;8.13;;;;;;;;;;5093073;28;20024;-40
2022/05/06 01:02:48;;;;;;;10.93;8.40;;;;;;;;;;5093058;28;20077;-40
2022/05/06 01:05:14;;;;;;;10.35;8.43;;;;;;;;;;5092940;28;20028;-40
2022/05/06 01:07:39;;;;;;;10.50;8.40;;;;;;;;;;5092768;28;20420;-40
2022/05/06 01:10:05;;;;;;;9.88;8.40;;;;;;;;;;5096234;28;20016;-41
2022/05/06 01:12:31;;;;;;;12.45;8.55;;;;;;;;;;5097133;28;20085;-40
2022/05/06 01:14:56;;;;;;;9.68;7.82;;;;;;;;;;5096841;28;20042;-40
2022/05/06 01:17:22;;;;;;;9.45;7.75;;;;;;;;;;5096996;28;20089;-40
2022/05/06 01:19:47;;;;;;;10.82;7.25;;;;;;;;;;5096922;28;20375;-40
2022/05/06 01:22:13;;;;;;;9.02;7.68;;;;;;;;;;5096628;28;20379;-40
2022/05/06 01:24:38;;;;;;;11.02;7.53;;;;;;;;;;5096503;28;20459;-40
2022/05/06 01:27:06;;;;;;;10.18;7.95;;;;;;;;;;5096584;28;20025;-40
2022/05/06 01:29:32;;;;;;;10.32;7.68;;;;;;;;;;5096673;28;20024;-40
2022/05/06 01:31:58;;;;;;;10.48;8.27;;;;;;;;;;5096619;28;20019;-40
2022/05/06 01:34:24;;;;;;;9.98;7.88;;;;;;;;;;5096399;28;20031;-40
2022/05/06 01:36:51;;;;;;;9.73;8.13;;;;;;;;;;5096270;28;20020;-40
2022/05/06 01:39:18;;;;;;;13.13;8.90;;;;;;;;;;5096919;28;20020;-40
2022/05/06 01:41:45;;;;;;;17.70;10.07;;;;;;;;;;5096255;28;20051;-40
2022/05/06 01:44:12;;;;;;;12.70;9.88;;;;;;;;;;5096346;28;20216;-40
2022/05/06 01:46:38;;;;;;;12.80;10.13;;;;;;;;;;5096229;28;20524;-40
2022/05/06 01:49:04;;;;;;;12.38;9.13;;;;;;;;;;5096031;28;20016;-40
2022/05/06 01:51:30;;;;;;;15.93;10.05;;;;;;;;;;5096313;28;20518;-40
2022/05/06 01:53:55;;;;;;;14.05;9.70;;;;;;;;;;5096039;28;20078;-41
2022/05/06 01:56:21;;;;;;;12.32;10.15;;;;;;;;;;5096538;28;20094;-40
2022/05/06 01:58:46;;;;;;;11.70;9.52;;;;;;;;;;5096136;28;20027;-40
2022/05/06 02:01:12;;;;;;;12.60;9.48;;;;;;;;;;5096120;28;20055;-40
2022/05/06 02:06:21;;;;;;;12.55;9.23;;;;;;;;;;5095715;28;20121;-40
2022/05/06 02:08:46;;;;;;;14.15;10.02;;;;;;;;;;5095584;28;20120;-40
2022/05/06 02:11:12;;;;;;;14.77;11.10;;;;;;;;;;5095923;28;20020;-40
2022/05/06 02:13:38;;;;;;;15.02;10.55;;;;;;;;;;5095673;28;20055;-40
2022/05/06 02:16:03;;;;;;;16.40;12.05;;;;;;;;;;5095848;28;20024;-40
2022/05/06 02:18:29;;;;;;;17.23;11.93;;;;;;;;;;5095671;28;20580;-40
2022/05/06 02:20:57;;;;;;;13.65;10.68;;;;;;;;;;5095036;28;20016;-40
2022/05/06 02:23:23;;;;;;;14.25;10.35;;;;;;;;;;5095368;28;20031;-41
2022/05/06 02:25:48;;;;;;;15.50;10.38;;;;;;;;;;5095428;28;20020;-40
2022/05/06 02:28:14;;;;;;;13.02;10.75;;;;;;;;;;5095624;28;20103;-40
2022/05/06 02:33:24;;;;;;;14.82;10.60;;;;;;;;;;5095713;28;20170;-40
2022/05/06 02:35:50;;;;;;;14.27;10.15;;;;;;;;;;5095102;28;20530;-40
2022/05/06 02:38:15;;;;;;;15.27;10.43;;;;;;;;;;5095689;28;20020;-40
2022/05/06 02:40:40;;;;;;;13.90;10.70;;;;;;;;;;5095357;28;20458;-40
2022/05/06 02:43:06;;;;;;;17.63;11.38;;;;;;;;;;5094985;28;20024;-40
2022/05/06 02:45:32;;;;;;;14.68;10.85;;;;;;;;;;5095239;28;20065;-40
2022/05/06 02:47:57;;;;;;;18.33;12.50;;;;;;;;;;5095087;28;20073;-40
2022/05/06 02:50:23;;;;;;;22.30;11.73;;;;;;;;;;5095204;28;20016;-40
2022/05/06 02:52:48;;;;;;;14.45;10.95;;;;;;;;;;5094839;28;20047;-40
2022/05/06 02:55:14;;;;;;;15.75;10.68;;;;;;;;;;5094957;28;20470;-40
2022/05/06 02:57:39;;;;;;;20.50;12.75;;;;;;;;;;5094938;28;20016;-40
2022/05/06 03:00:05;;;;;;;18.77;11.55;;;;;;;;;;5094989;28;20016;-40
2022/05/06 03:02:30;;;;;;;22.13;12.02;;;;;;;;;;5094897;28;20024;-40
2022/05/06 03:04:55;;;;;;;16.10;11.20;;;;;;;;;;5094909;28;20039;-40
2022/05/06 03:07:21;;;;;;;15.25;10.68;;;;;;;;;;5094647;28;20060;-41
2022/05/06 03:09:46;;;;;;;17.00;10.82;;;;;;;;;;5094653;28;20035;-40
2022/05/06 03:12:12;;;;;;;15.60;11.27;;;;;;;;;;5094347;28;20019;-40
2022/05/06 03:14:37;;;;;;;14.35;10.50;;;;;;;;;;5094599;28;20028;-40
2022/05/06 03:17:02;;;;;;;18.10;11.32;;;;;;;;;;5094631;28;20024;-40
2022/05/06 03:19:28;;;;;;;15.63;9.90;;;;;;;;;;5094370;28;20030;-40
2022/05/06 03:21:56;;;;;;;15.30;11.02;;;;;;;;;;5094400;28;20020;-41
2022/05/06 03:24:22;;;;;;;15.48;10.80;;;;;;;;;;5094618;28;20028;-40
2022/05/06 03:26:47;;;;;;;18.83;12.23;;;;;;;;;;5094728;28;20069;-40
2022/05/06 03:29:12;;;;;;;15.82;10.77;;;;;;;;;;5094316;28;20125;-40
2022/05/06 03:31:38;;;;;;;15.40;11.50;;;;;;;;;;5093442;28;20103;-40
2022/05/06 03:34:03;;;;;;;19.60;12.35;;;;;;;;;;5094162;28;20016;-40
2022/05/06 03:36:29;;;;;;;16.08;11.32;;;;;;;;;;5093999;28;20031;-40
2022/05/06 03:38:54;;;;;;;17.95;12.93;;;;;;;;;;5094352;28;20466;-40
2022/05/06 03:41:19;;;;;;;18.40;12.68;;;;;;;;;;5094290;28;20020;-40
2022/05/06 03:43:45;;;;;;;19.20;12.23;;;;;;;;;;5093845;28;20082;-40
2022/05/06 03:46:10;;;;;;;24.60;12.25;;;;;;;;;;5094108;28;20054;-40
2022/05/06 03:48:35;;;;;;;17.00;11.77;;;;;;;;;;5094561;28;20027;-40
2022/05/06 03:53:45;;;;;;;16.88;12.98;;;;;;;;;;5093602;28;20027;-40
2022/05/06 03:56:10;;;;;;;14.63;11.80;;;;;;;;;;5092499;28;20028;-40
2022/05/06 03:58:35;;;;;;;17.02;12.05;;;;;;;;;;5093785;28;20095;-40
2022/05/06 04:01:03;;;;;;;15.95;11.05;;;;;;;;;;5093642;28;20016;-40
2022/05/06 04:03:29;;;;;;;17.63;11.60;;;;;;;;;;5093565;28;20028;-41
2022/05/06 04:05:54;;;;;;;17.92;11.75;;;;;;;;;;5093334;28;20489;-40
2022/05/06 04:08:19;;;;;;;16.30;11.60;;;;;;;;;;5093730;28;20025;-39
2022/05/06 04:10:44;;;;;;;16.40;11.45;;;;;;;;;;5093809;28;20107;-40
2022/05/06 04:13:10;;;;;;;19.35;12.65;;;;;;;;;;5093771;28;20056;-39
2022/05/06 04:15:36;;;;;;;17.65;12.55;;;;;;;;;;5093489;28;20467;-40
2022/05/06 04:18:01;;;;;;;16.13;11.88;;;;;;;;;;5093389;28;20024;-40
2022/05/06 04:23:29;;;;;;;20.13;12.63;;;;;;;;;;5093342;28;20085;-40
2022/05/06 04:25:55;;;;;;;18.60;13.07;;;;;;;;;;5093171;28;20512;-40
2022/05/06 04:28:21;;;;;;;15.23;11.10;;;;;;;;;;5093099;28;20020;-40
2022/05/06 04:30:46;;;;;;;16.65;12.23;;;;;;;;;;5093356;28;20020;-41
2022/05/06 04:33:11;;;;;;;14.98;12.20;;;;;;;;;;5093042;28;20386;-40
2022/05/06 04:35:37;;;;;;;21.38;12.80;;;;;;;;;;5093018;28;20082;-40
2022/05/06 04:38:02;;;;;;;17.13;12.05;;;;;;;;;;5091954;28;20115;-38
2022/05/06 04:40:27;;;;;;;17.10;12.65;;;;;;;;;;5093170;28;20023;-38
2022/05/06 04:42:52;;;;;;;16.95;12.77;;;;;;;;;;5092923;28;20056;-40
2022/05/06 04:45:18;;;;;;;17.98;13.02;;;;;;;;;;5093056;28;20028;-40
2022/05/06 04:47:43;;;;;;;16.17;12.20;;;;;;;;;;5092786;28;20069;-41
2022/05/06 04:50:08;;;;;;;20.30;12.03;;;;;;;;;;5093314;28;20020;-40
2022/05/06 04:52:34;;;;;;;17.13;12.68;;;;;;;;;;5093080;28;20245;-40
2022/05/06 04:54:59;;;;;;;19.05;13.57;;;;;;;;;;5092794;28;20134;-40
2022/05/06 04:57:24;;;;;;;17.05;12.65;;;;;;;;;;5093121;28;20020;-40
2022/05/06 04:59:49;;;;;;;18.63;12.50;;;;;;;;;;5092985;28;20046;-40
2022/05/06 05:02:15;;;;;;;19.67;13.13;;;;;;;;;;5092633;28;20026;-41
2022/05/06 05:04:41;;;;;;;16.42;12.27;;;;;;;;;;5093008;28;20031;-40
2022/05/06 05:07:07;;;;;;;18.20;11.52;;;;;;;;;;5093110;28;20394;-40
2022/05/06 05:09:32;;;;;;;18.48;13.10;;;;;;;;;;5092982;28;20447;-40
2022/05/06 05:11:58;;;;;;;18.35;12.68;;;;;;;;;;5092877;28;20026;-40
2022/05/06 05:14:23;;;;;;;17.38;12.38;;;;;;;;;;5092611;28;20017;-40
2022/05/06 05:16:50;;;;;;;18.15;12.50;;;;;;;;;;5092659;28;20016;-41
2022/05/06 05:19:15;;;;;;;19.58;12.93;;;;;;;;;;5092755;28;20016;-40
2022/05/06 05:21:41;;;;;;;17.83;12.38;;;;;;;;;;5092673;28;20024;-40
2022/05/06 05:24:07;;;;;;;15.82;12.48;;;;;;;;;;5092620;28;20024;-39
2022/05/06 05:26:32;;;;;;;20.35;11.73;;;;;;;;;;5093021;28;20031;-39
2022/05/06 05:28:57;;;;;;;18.42;11.98;;;;;;;;;;5092763;28;20061;-39
2022/05/06 05:31:22;;;;;;;16.85;11.90;;;;;;;;;;5092630;28;20026;-39
2022/05/06 05:33:49;;;;;;;16.92;11.32;;;;;;;;;;5092434;28;20012;-40
2022/05/06 05:36:14;;;;;;;16.33;11.75;;;;;;;;;;5092542;28;20036;-40
2022/05/06 05:38:39;;;;;;;16.90;11.77;;;;;;;;;;5092591;28;20466;-40
2022/05/06 05:41:04;;;;;;;22.15;12.80;;;;;;;;;;5092563;28;20024;-40
2022/05/06 05:49:05;;;;;;;17.13;11.13;;;;;;;;;;5092663;28;20030;-40
2022/05/06 05:51:31;;;;;;;19.63;11.80;;;;;;;;;;5092595;28;20028;-40
2022/05/06 05:53:56;;;;;;;13.82;11.68;;;;;;;;;;5092332;28;20040;-40
2022/05/06 05:56:21;;;;;;;17.45;11.95;;;;;;;;;;5088714;28;20093;-39
2022/05/06 05:58:48;;;;;;;16.63;11.55;;;;;;;;;;5083468;28;20028;-38
2022/05/06 06:01:14;;;;;;;16.08;12.02;;;;;;;;;;5086976;28;20129;-38
2022/05/06 06:03:39;;;;;;;15.80;11.52;;;;;;;;;;5089530;28;20429;-40
2022/05/06 06:06:04;;;;;;;16.05;12.00;;;;;;;;;;5076889;28;20025;-39
2022/05/06 06:08:30;;;;;;;13.45;10.63;;;;;;;;;;5077878;28;20451;-40
2022/05/06 06:10:55;;;;;;;18.13;10.90;;;;;;;;;;5079946;28;22110;-40
2022/05/06 06:13:22;;;;;;;11.83;9.90;;;;;;;;;;5073691;28;20024;-39
2022/05/06 06:15:47;;;;;;;12.88;9.57;;;;;;;;;;5078508;28;20293;-40
2022/05/06 06:18:14;;;;;;;14.57;11.23;;;;;;;;;;5084309;28;20481;-40
2022/05/06 06:20:39;;;;;;;17.73;9.68;;;;;;;;;;5078782;28;20475;-40
2022/05/06 06:23:05;;;;;;;12.75;10.43;;;;;;;;;;5076225;28;20066;-38
2022/05/06 06:25:30;;;;;;;15.88;11.18;;;;;;;;;;5075179;28;20371;-39
2022/05/06 06:27:55;;;;;;;16.73;11.40;;;;;;;;;;5079187;28;20470;-40
2022/05/06 06:30:21;;;;;;;12.15;9.75;;;;;;;;;;5086455;28;20107;-39
2022/05/06 06:32:46;;;;;;;12.38;9.77;;;;;;;;;;5086475;28;20035;-40
2022/05/06 06:35:11;;;;;;;14.63;10.35;;;;;;;;;;5085758;28;20368;-38
2022/05/06 06:37:38;;;;;;;12.95;9.77;;;;;;;;;;5082828;28;20035;-39
2022/05/06 06:40:04;;;;;;;13.48;9.20;;;;;;;;;;5078872;28;20035;-39
2022/05/06 06:42:30;;;;;;;13.98;9.40;;;;;;;;;;5077901;28;20028;-40
2022/05/06 06:44:57;;;;;;;77.30;12.90;;;;;;;;;;5074654;28;20475;-39
2022/05/06 06:47:23;;;;;;;10.65;8.38;;;;;;;;;;5077887;28;20023;-39
2022/05/06 06:49:48;;;;;;;18.85;11.00;;;;;;;;;;5078575;28;20103;-40
2022/05/06 06:52:14;;;;;;;13.97;8.97;;;;;;;;;;5091958;28;20021;-40
2022/05/06 06:54:40;;;;;;;12.63;8.18;;;;;;;;;;5080500;28;20725;-40
2022/05/06 06:57:06;;;;;;;14.73;8.70;;;;;;;;;;5082612;28;20060;-40
2022/05/06 06:59:32;;;;;;;13.75;8.52;;;;;;;;;;5085275;28;20058;-40
2022/05/06 07:01:57;;;;;;;14.75;8.02;;;;;;;;;;5082603;28;20425;-40
2022/05/06 07:04:23;;;;;;;27.08;13.38;;;;;;;;;;5079333;28;20024;-40
2022/05/06 07:12:16;;;;;;;14.80;7.93;;;;;;;;;;5079524;28;20444;-40
2022/05/06 07:14:42;;;;;;;18.85;9.30;;;;;;;;;;5073997;28;20032;-39
2022/05/06 07:17:07;;;;;;;54.85;45.70;;;;;;;;;;5074443;28;20070;-39
2022/05/06 07:19:35;;;;;;;13.93;8.18;;;;;;;;;;5073179;28;20368;-39
2022/05/06 07:22:01;;;;;;;14.65;7.15;;;;;;;;;;5072851;28;20019;-39
2022/05/06 07:24:26;;;;;;;8.75;6.43;;;;;;;;;;5096955;28;20516;-39
2022/05/06 07:26:52;;;;;;;16.83;6.05;;;;;;;;;;5089912;28;20387;-39
2022/05/06 07:29:19;;;;;;;12.27;6.40;;;;;;;;;;5082302;28;20024;-38
2022/05/06 07:31:44;;;;;;;12.63;6.32;;;;;;;;;;5087541;28;20106;-39
2022/05/06 07:34:10;;;;;;;11.95;7.00;;;;;;;;;;5087467;28;20103;-39
2022/05/06 07:36:41;;;;;;;10.98;6.65;;;;;;;;;;5085401;28;20028;-38
2022/05/06 07:39:07;;;;;;;12.88;6.85;;;;;;;;;;5086418;28;20028;-38
2022/05/06 07:41:32;;;;;;;9.88;5.78;;;;;;;;;;5083517;28;20383;-40
2022/05/06 07:43:58;;;;;;;15.23;7.35;;;;;;;;;;5082470;28;20026;-41
2022/05/06 07:46:25;;;;;;;11.93;6.95;;;;;;;;;;5073336;28;20029;-38
2022/05/06 07:48:50;;;;;;;7.78;6.38;;;;;;;;;;5085928;28;20052;-38
2022/05/06 07:51:15;;;;;;;8.88;6.32;;;;;;;;;;5092675;28;20413;-38
2022/05/06 07:53:40;;;;;;;15.15;7.07;;;;;;;;;;5079724;28;20020;-38
2022/05/06 07:56:06;;;;;;;7.90;6.03;;;;;;;;;;5084295;28;20043;-38
2022/05/06 07:58:32;;;;;;;9.35;6.47;;;;;;;;;;5084089;28;20051;-38
2022/05/06 08:00:57;;;;;;;8.52;5.80;;;;;;;;;;5084670;28;20099;-38
2022/05/06 08:06:07;;;;;;;8.55;7.10;;;;;;;;;;5074275;28;20118;-38
2022/05/06 08:08:32;;;;;;;14.52;6.70;;;;;;;;;;5091624;28;20509;-38
2022/05/06 08:10:58;;;;;;;10.13;7.22;;;;;;;;;;5093320;28;20048;-38
2022/05/06 08:13:23;;;;;;;6.85;5.60;;;;;;;;;;5087383;28;20028;-37
2022/05/06 08:15:50;;;;;;;8.23;6.43;;;;;;;;;;5073047;28;20509;-37
2022/05/06 08:18:15;;;;;;;9.52;7.28;;;;;;;;;;5078856;28;20016;-36
2022/05/06 08:20:41;;;;;;;8.55;6.53;;;;;;;;;;5093189;28;20020;-37
2022/05/06 08:23:07;;;;;;;11.65;6.95;;;;;;;;;;5076375;28;20032;-36
2022/05/06 08:25:32;;;;;;;11.93;7.45;;;;;;;;;;5072489;28;20486;-37
2022/05/06 08:27:58;;;;;;;14.75;10.77;;;;;;;;;;5077735;28;20092;-37
2022/05/06 08:30:24;;;;;;;10.98;6.78;;;;;;;;;;5079271;28;20027;-37
2022/05/06 08:32:50;;;;;;;19.83;7.30;;;;;;;;;;5074617;28;20025;-37
2022/05/06 08:35:15;;;;;;;9.95;6.90;;;;;;;;;;5073199;28;20035;-36
2022/05/06 08:37:41;;;;;;;11.23;6.68;;;;;;;;;;5071566;28;20391;-39
2022/05/06 08:40:08;;;;;;;9.40;6.00;;;;;;;;;;5072738;28;20024;-38
2022/05/06 08:42:34;;;;;;;8.98;6.65;;;;;;;;;;5076116;28;20035;-38
2022/05/06 08:53:11;;;;;;;7.85;6.20;;;;;;;;;;5083360;28;20051;-40
2022/05/06 08:55:37;;;;;;;8.70;5.82;;;;;;;;;;5081941;28;20094;-41
2022/05/06 08:58:02;;;;;;;9.57;6.13;;;;;;;;;;5090595;28;20054;-44
2022/05/06 09:00:28;;;;;;;14.82;6.95;;;;;;;;;;5074618;28;20020;-39
2022/05/06 09:02:53;;;;;;;11.48;6.60;;;;;;;;;;5071018;28;20107;-39
2022/05/06 09:05:19;;;;;;;11.40;6.20;;;;;;;;;;5070714;28;20653;-39
2022/05/06 09:07:55;;;;;;;13.98;6.13;;;;;;;;;;5077340;28;20016;-39
2022/05/06 09:10:20;;;;;;;14.23;5.85;;;;;;;;;;5082091;28;20149;-39
2022/05/06 09:12:46;;;;;;;11.18;5.88;;;;;;;;;;5075248;28;20104;-38
2022/05/06 09:17:56;;;;;;;11.20;5.38;;;;;;;;;;5085674;28;20135;-42
2022/05/06 09:20:22;;;;;;;13.07;5.43;;;;;;;;;;5089147;28;20068;-38
2022/05/06 09:22:50;;;;;;;6.55;4.53;;;;;;;;;;5082110;28;20426;-38
2022/05/06 09:25:34;;;;;;;5.93;4.97;;;;;;;;;;5091680;28;20020;-38
2022/05/06 09:27:59;;;;;;;5.97;3.90;;;;;;;;;;5091436;28;20512;-38
2022/05/06 09:30:24;;;;;;;9.03;3.87;;;;;;;;;;5092904;28;20020;-38
2022/05/06 09:32:50;;;;;;;6.43;3.80;;;;;;;;;;5093764;28;20237;-38
2022/05/06 09:35:15;;;;;;;10.70;4.00;;;;;;;;;;5089314;28;20470;-39
2022/05/06 09:37:45;;;;;;;6.10;3.77;;;;;;;;;;5093306;28;20016;-39
2022/05/06 09:40:12;;;;;;;6.60;3.83;;;;;;;;;;5093515;28;20248;-39
2022/05/06 09:42:38;;;;;;;9.32;4.43;;;;;;;;;;5094053;28;20495;-40
2022/05/06 09:45:04;;;;;;;7.95;3.83;;;;;;;;;;5094528;28;20021;-38
2022/05/06 09:47:30;;;;;;;6.82;3.63;;;;;;;;;;5094969;28;20040;-39
2022/05/06 09:49:55;;;;;;;7.65;3.28;;;;;;;;;;5095515;28;20016;-38
2022/05/06 09:52:21;;;;;;;7.57;3.88;;;;;;;;;;5095444;28;20030;-39
2022/05/06 09:54:48;;;;;;;7.30;3.25;;;;;;;;;;5093920;28;20052;-40
2022/05/06 09:57:14;;;;;;;7.72;3.70;;;;;;;;;;5094782;28;20020;-42
2022/05/06 09:59:39;;;;;;;9.35;3.78;;;;;;;;;;5095452;28;20066;-38
2022/05/06 10:02:05;;;;;;;8.40;3.72;;;;;;;;;;5095153;28;20024;-38
2022/05/06 10:04:31;;;;;;;8.18;3.78;;;;;;;;;;5093269;28;20024;-39
2022/05/06 10:06:58;;;;;;;9.90;4.30;;;;;;;;;;5095335;28;20108;-39
2022/05/06 10:09:24;;;;;;;12.60;4.97;;;;;;;;;;5095215;28;20056;-39
2022/05/06 10:11:51;;;;;;;10.15;3.92;;;;;;;;;;5093421;28;20434;-38
2022/05/06 10:14:17;;;;;;;6.63;3.95;;;;;;;;;;5079262;28;20116;-39
2022/05/06 10:16:42;;;;;;;6.63;3.97;;;;;;;;;;5084781;28;20103;-38
2022/05/06 10:19:27;;;;;;;5.60;3.58;;;;;;;;;;5084269;28;20459;-39
2022/05/06 10:21:53;;;;;;;6.60;3.80;;;;;;;;;;5084182;28;20133;-37
2022/05/06 10:24:18;;;;;;;5.03;3.75;;;;;;;;;;5080364;28;20477;-37
2022/05/06 10:26:47;;;;;;;9.40;3.95;;;;;;;;;;5081250;28;20517;-38
2022/05/06 10:35:02;;;;;;;6.55;3.40;;;;;;;;;;5093787;28;20119;-39
2022/05/06 10:37:38;;;;;;;6.47;3.40;;;;;;;;;;5084131;28;20372;-40
2022/05/06 10:40:22;;;;;;;6.18;4.07;;;;;;;;;;5078693;28;20030;-39
2022/05/06 10:42:47;;;;;;;4.25;3.85;;;;;;;;;;5088119;28;20038;-40
2022/05/06 10:45:26;;;;;;;9.07;3.70;;;;;;;;;;5085783;28;20016;-37
2022/05/06 10:47:52;;;;;;;6.40;3.63;;;;;;;;;;5077644;28;20273;-37
2022/05/06 10:50:23;;;;;;;5.82;3.22;;;;;;;;;;5083002;28;20043;-38
2022/05/06 10:52:49;;;;;;;10.75;3.55;;;;;;;;;;5078454;28;20024;-37
2022/05/06 10:55:15;;;;;;;5.10;3.00;;;;;;;;;;5082934;28;20055;-37
2022/05/06 10:58:03;;;;;;;6.25;3.25;;;;;;;;;;5081565;28;20039;-37
2022/05/06 11:00:30;;;;;;;5.68;3.00;;;;;;;;;;5071411;28;20036;-37
2022/05/06 11:02:57;;;;;;;5.32;2.90;;;;;;;;;;5091755;28;20030;-38
2022/05/06 11:05:24;;;;;;;7.35;3.35;;;;;;;;;;5087903;28;20055;-38
2022/05/06 11:07:52;;;;;;;5.18;3.40;;;;;;;;;;5087397;28;20043;-39
2022/05/06 11:10:28;;;;;;;7.17;3.20;;;;;;;;;;5082216;28;20046;-40
2022/05/06 11:12:55;;;;;;;8.88;3.08;;;;;;;;;;5093170;28;20015;-39
2022/05/06 11:15:30;;;;;;;4.63;3.08;;;;;;;;;;5090817;28;20038;-39
2022/05/06 11:17:57;;;;;;;6.30;2.97;;;;;;;;;;5088247;28;20382;-37
2022/05/06 11:20:27;;;;;;;3.58;3.00;;;;;;;;;;5092144;28;20020;-38
2022/05/06 11:22:53;;;;;;;6.05;3.55;;;;;;;;;;5078034;28;20024;-38
2022/05/06 11:25:20;;;;;;;6.57;4.60;;;;;;;;;;5078742;28;20027;-37
2022/05/06 11:27:45;;;;;;;10.98;3.60;;;;;;;;;;5085807;28;20078;-37
2022/05/06 11:30:16;;;;;;;4.83;2.90;;;;;;;;;;5083762;28;20027;-37
2022/05/06 11:32:46;;;;;;;10.05;3.45;;;;;;;;;;5079115;28;20633;-37
2022/05/06 11:35:13;;;;;;;4.45;3.50;;;;;;;;;;5084370;28;20032;-37
2022/05/06 11:37:39;;;;;;;5.18;3.55;;;;;;;;;;5086095;28;20024;-37
2022/05/06 11:40:32;;;;;;;10.30;3.70;;;;;;;;;;5079389;28;20033;-37
2022/05/06 11:43:05;;;;;;;6.85;3.70;;;;;;;;;;5087931;28;20016;-39
2022/05/06 11:48:15;;;;;;;7.65;3.10;;;;;;;;;;5091527;28;20019;-38
2022/05/06 11:50:41;;;;;;;4.65;3.45;;;;;;;;;;5090328;28;20454;-38
2022/05/06 11:53:11;;;;;;;6.30;2.92;;;;;;;;;;5085724;28;20024;-38
2022/05/06 11:55:37;;;;;;;7.20;2.90;;;;;;;;;;5090713;28;20126;-38
2022/05/06 11:58:06;;;;;;;3.72;3.25;;;;;;;;;;5090301;28;20486;-38
2022/05/06 12:00:31;;;;;;;;;;;;;;;;;;5079893;28;20024;-39
2022/05/06 12:03:01;;;;;;;7.47;3.10;;;;;;;;;;5089703;28;19904;-38
2022/05/06 12:05:26;;;;;;;5.80;2.90;;;;;;;;;;5082579;28;20020;-39
2022/05/06 12:07:51;;;;;;;6.13;3.03;;;;;;;;;;5084186;28;20462;-38
2022/05/06 12:10:26;;;;;;;7.97;2.77;;;;;;;;;;5085084;28;20340;-38
2022/05/06 12:12:51;;;;;;;6.72;2.92;;;;;;;;;;5093495;28;20291;-39
2022/05/06 12:15:17;;;;;;;4.65;3.40;;;;;;;;;;5083544;28;20075;-38
2022/05/06 12:17:42;;;;;;;8.40;3.05;;;;;;;;;;5079694;28;20021;-38
2022/05/06 12:20:27;;;;;;;7.73;3.40;;;;;;;;;;5079546;28;20020;-39
2022/05/06 12:22:58;;;;;;;7.35;3.03;;;;;;;;;;5078387;28;20020;-40
2022/05/06 12:25:23;;;;;;;4.65;3.38;;;;;;;;;;5083433;28;20362;-37
2022/05/06 12:28:02;;;;;;;5.20;3.15;;;;;;;;;;5092098;28;20035;-37
2022/05/06 12:30:29;;;;;;;7.68;3.67;;;;;;;;;;5092249;28;20024;-37
2022/05/06 12:33:07;;;;;;;3.17;2.85;;;;;;;;;;5092229;28;20423;-38
2022/05/06 12:35:52;;;;;;;8.43;2.63;;;;;;;;;;5089791;28;20040;-38
2022/05/06 12:38:18;;;;;;;6.68;3.28;;;;;;;;;;5079775;28;20039;-37
2022/05/06 12:40:43;;;;;;;4.68;3.60;;;;;;;;;;5092316;28;20460;-37
2022/05/06 12:43:09;;;;;;;7.20;2.88;;;;;;;;;;5090056;28;20031;-38
2022/05/06 12:45:35;;;;;;;6.45;3.60;;;;;;;;;;5088265;28;20020;-38
2022/05/06 12:50:44;;;;;;;4.70;3.17;;;;;;;;;;5083089;28;20149;-38
2022/05/06 12:53:09;;;;;;;9.80;3.17;;;;;;;;;;5076259;28;20103;-40
2022/05/06 12:55:35;;;;;;;5.75;2.97;;;;;;;;;;5075595;28;20059;-38
2022/05/06 12:58:00;;;;;;;6.78;3.10;;;;;;;;;;5081596;28;20028;-38
2022/05/06 13:00:25;;;;;;;5.93;3.10;;;;;;;;;;5088971;28;20085;-39
2022/05/06 13:02:52;;;;;;;6.13;3.47;;;;;;;;;;5082093;28;20259;-38
2022/05/06 13:05:18;;;;;;;5.90;3.25;;;;;;;;;;5087797;28;20043;-38
2022/05/06 13:07:43;;;;;;;6.68;3.88;;;;;;;;;;5092959;28;20467;-39
2022/05/06 13:10:09;;;;;;;9.02;3.50;;;;;;;;;;5088676;28;20013;-38
2022/05/06 13:12:34;;;;;;;10.73;3.20;;;;;;;;;;5080568;28;20431;-37
2022/05/06 13:14:59;;;;;;;9.68;3.33;;;;;;;;;;5088978;28;20040;-38
2022/05/06 13:17:25;;;;;;;6.03;3.30;;;;;;;;;;5084182;28;20057;-38
2022/05/06 13:19:51;;;;;;;7.47;3.47;;;;;;;;;;5090153;28;20735;-38
2022/05/06 13:22:17;;;;;;;7.70;3.30;;;;;;;;;;5089923;28;20183;-38
2022/05/06 13:24:42;;;;;;;5.28;3.13;;;;;;;;;;5076508;28;20028;-37
2022/05/06 13:27:07;;;;;;;5.88;3.08;;;;;;;;;;5078180;28;20008;-37
2022/05/06 13:29:33;;;;;;;7.05;3.50;;;;;;;;;;5079086;28;20070;-39
2022/05/06 13:31:58;;;;;;;5.00;3.20;;;;;;;;;;5094879;28;20020;-39
2022/05/06 13:34:24;;;;;;;4.00;3.42;;;;;;;;;;5088585;28;20028;-38
2022/05/06 13:36:49;;;;;;;6.18;3.22;;;;;;;;;;5087297;28;20357;-38
2022/05/06 13:39:14;;;;;;;8.38;3.10;;;;;;;;;;5089692;28;20060;-38
2022/05/06 13:41:41;;;;;;;13.93;3.47;;;;;;;;;;5083461;28;20028;-38
2022/05/06 13:44:06;;;;;;;7.05;3.30;;;;;;;;;;5077435;28;20060;-39
2022/05/06 13:46:32;;;;;;;6.80;3.75;;;;;;;;;;5077283;28;20447;-38
2022/05/06 13:48:57;;;;;;;8.02;3.53;;;;;;;;;;5090196;28;20523;-39
2022/05/06 13:51:22;;;;;;;4.38;2.80;;;;;;;;;;5090458;28;20516;-38
2022/05/06 13:53:48;;;;;;;5.78;3.00;;;;;;;;;;5079912;28;20095;-38
2022/05/06 13:59:11;;;;;;;10.73;3.67;;;;;;;;;;5076630;28;20040;-38
2022/05/06 14:01:38;;;;;;;3.83;3.10;;;;;;;;;;5083275;28;20024;-38
2022/05/06 14:04:04;;;;;;;5.95;3.03;;;;;;;;;;5073393;28;20020;-37
2022/05/06 14:06:30;;;;;;;4.53;2.97;;;;;;;;;;5075772;28;21954;-37
2022/05/06 14:08:56;;;;;;;5.57;3.03;;;;;;;;;;5078077;28;20046;-37
2022/05/06 14:11:22;;;;;;;5.63;3.65;;;;;;;;;;5074580;28;20527;-38
2022/05/06 14:13:47;;;;;;;7.78;3.10;;;;;;;;;;5075521;28;20028;-38
2022/05/06 14:16:12;;;;;;;5.28;2.90;;;;;;;;;;5073852;28;20031;-38
2022/05/06 14:18:38;;;;;;;4.05;3.30;;;;;;;;;;5075746;28;20364;-37
2022/05/06 14:21:03;;;;;;;8.02;3.10;;;;;;;;;;5079844;28;20100;-38
2022/05/06 14:23:28;;;;;;;7.97;3.63;;;;;;;;;;5074698;28;20040;-37
2022/05/06 14:25:57;;;;;;;3.75;3.42;;;;;;;;;;5074466;28;20482;-37
2022/05/06 14:28:22;;;;;;;3.80;2.93;;;;;;;;;;5073593;28;20024;-38
2022/05/06 14:30:48;;;;;;;8.15;3.25;;;;;;;;;;5091797;28;20035;-40
2022/05/06 14:33:15;;;;;;;3.50;3.20;;;;;;;;;;5073800;28;20032;-37
2022/05/06 14:35:41;;;;;;;5.70;3.83;;;;;;;;;;5073418;28;20072;-37
2022/05/06 14:38:06;;;;;;;8.15;3.45;;;;;;;;;;5073420;28;20067;-37
2022/05/06 14:40:32;;;;;;;10.40;3.45;;;;;;;;;;5073749;28;20449;-37
2022/05/06 14:42:57;;;;;;;5.53;3.70;;;;;;;;;;5073508;28;20032;-37
2022/05/06 14:45:23;;;;;;;3.80;3.38;;;;;;;;;;5073616;28;20032;-37
2022/05/06 14:47:50;;;;;;;4.38;3.03;;;;;;;;;;5077590;28;20360;-37
2022/05/06 14:50:15;;;;;;;9.00;3.50;;;;;;;;;;5091325;28;20098;-39
2022/05/06 14:52:41;;;;;;;10.43;3.50;;;;;;;;;;5088343;28;20040;-38
2022/05/06 14:55:06;;;;;;;8.55;3.63;;;;;;;;;;5078002;28;20051;-38
2022/05/06 14:57:32;;;;;;;7.03;3.50;;;;;;;;;;5080362;28;20024;-40
2022/05/06 14:59:57;;;;;;;7.25;4.13;;;;;;;;;;5081029;28;20447;-41
2022/05/06 15:02:23;;;;;;;4.57;3.53;;;;;;;;;;5093566;28;20077;-40
2022/05/06 15:04:48;;;;;;;7.97;3.65;;;;;;;;;;5094622;28;20244;-40
2022/05/06 15:07:13;;;;;;;6.70;3.33;;;;;;;;;;5094923;28;20020;-40
2022/05/06 15:09:38;;;;;;;7.43;3.50;;;;;;;;;;5094678;28;20026;-40
2022/05/06 15:12:04;;;;;;;4.72;3.40;;;;;;;;;;5093187;28;20292;-40
2022/05/06 15:14:31;;;;;;;7.57;3.35;;;;;;;;;;5093779;28;20083;-41
2022/05/06 15:17:04;;;;;;;11.25;3.47;;;;;;;;;;5093167;28;20050;-41